McAdam, Canada
Current Conditions -  °F | °C
As of 2:00 AM on Wednesday 22 Oct 2014 (Local Time) from CYFC Reporting Station
Light Rain Light Rain  
Wind Chill: 41°   Ceiling: 6500
Heat Index: 45°   Visibility: 9mi
Dew Point: 37°   Wind: 6mph
Humidity: 76%   Direction: 20°NNE
Pressure: 30.28"   Gusts: NA
Location:  45.6°N, 67.33°W
Report Text: CYFC 220500Z AUTO 02005KT 9SM -RA OVC065 07/03 A3028 RMK SLP255
Loading
Personal Weather Stations






























Interactive Weather Map
Tropical Storm Tracking
New forecast layout! Learn more

10-Day Weather Forecast

Advertisements
Track Severe Weather on mobile